Tiempo atmosférico en la estación meteorológica de Aguilar de la Frontera, Córdoba (305 m.)



Fecha
DESCASC
Temp. máxima en grados centígrados (hora)
DESCASC
Temp. mínima en grados centígrados (hora)
DESCASC
Temp. media en grados centígrados
DESCASC
Racha de viento máxima en m/sg (hora)
DESCASC
Velocidad máxima media en intervalos de 10 minutos(hora)
DESCASC
Precipitaciones diarias en mm
DESCASC
Precipitaciones de 00:00 a 06:00 en mm
DESCASC
Precipitaciones de 06:00 a 12:00 en mm
DESCASC
Precipitaciones de 12:00 a 18:00 en mm
DESCASC
Precipitaciones de 18:00 a 24:00 en mm
DESCASC
05-04-2020 21.8 (17:00) 8.6 (05:50) 15.2 9.17 (00:20) 5.83 (00:20) 0 0 0 0 0
04-04-2020 19.2 (13:40) 8 (06:00) 13.6 15.28 (15:50) 8.61 (15:50) 0.2 0 0 0.2 0
03-04-2020 20 (16:50) 7 (00:40) 13.5 6.67 (19:50) 4.44 (23:30) 0 0 0 0 0
02-04-2020 14.4 (17:20) 7.1 (00:00) 10.7 9.44 (16:20) 5.56 (08:00) 9.4 3.2 6.2 0 0
01-04-2020 16.9 (16:10) 8.4 (00:00) 12.6 12.5 (17:50) 7.5 (17:50) 1.6 0.4 0 0 1.2
31-03-2020 17.7 (16:10) 10.1 (00:00) 13.9 14.44 (17:10) 7.22 (18:50) 30.6 17 4.6 7.2 1.8
30-03-2020 18.3 (16:00) 10.4 (00:00) 14.3 10 (18:50) 6.39 (18:40) 6.6 0 0.2 0 6.4
29-03-2020 20.1 (17:10) 6.5 (00:00) 13.3 6.39 (22:40) 3.89 (22:40) 0 0 0 0 0
28-03-2020 18.7 (17:50) 5.1 (00:00) 11.9 6.67 (22:10) 4.17 (21:30) 0 0 0 0 0
27-03-2020 17.4 (12:40) 7.8 (00:00) 12.6 12.5 (15:50) 8.33 (14:40) 0 0 0 0 0
26-03-2020 20 (16:20) 11.4 (00:00) 15.7 10.83 (17:00) 6.39 (16:30) 0 0 0 0 0
25-03-2020 16.6 (16:50) 7.2 (00:00) 11.9 8.06 (15:10) 5.28 (14:40) 0 0 0 0 0
24-03-2020 19.9 (16:20) 7.6 (00:00) 13.7 10.83 (17:20) 7.22 (17:20) 1.2 1.2 0 0 0
23-03-2020 17.2 (13:30) 4.8 (00:00) 11 10.83 (18:10) 5.83 (18:10) 2 0 0 0 2
22-03-2020 15.1 (17:40) 7.3 (00:20) 11.2 5.83 (17:10) 3.61 (00:30) 1.2 0.2 0.2 0.8 0
21-03-2020 15.9 (14:10) 7.4 (00:00) 11.6 11.39 (03:00) 7.5 (03:10) 19.2 13.6 0.4 5 0.2
20-03-2020 19.7 (17:30) 9.1 (00:00) 14.4 11.11 (20:40) 7.5 (20:40) 0 0 0 0 0
19-03-2020 21.1 (15:20) 8.6 (00:00) 14.9 8.06 (17:40) 5 (17:40) 0 0 0 0 0
18-03-2020 22.8 (15:00) 8.5 (00:00) 15.6 8.33 (22:00) 5.56 (22:00) 0 0 0 0 0
17-03-2020 16.9 (16:10) 6.1 (00:00) 11.5 6.67 (23:00) 5 (23:00) 2.6 2 0 0.2 0.4
16-03-2020 14.3 (00:00) 6.3 (00:00) 10.3 9.44 (03:10) 5.83 (04:50) 0.6 0.4 0 0 0.2
15-03-2020 22.1 (15:40) 9.6 (00:00) 15.9 9.17 (14:40) 5.56 (14:50) 0 0 0 0 0
14-03-2020 22.8 (16:50) 8.3 (00:00) 15.5 5.28 (23:59) 3.89 (23:40) 0 0 0 0 0
13-03-2020 21.3 (16:40) 7.6 (07:40) 14.4 5.83 (17:30) 3.89 (17:00) 0 0 0 0 0
12-03-2020 26.1 (14:50) 12.3 (00:00) 19.2 8.33 (07:10) 6.67 (07:10) 0 0 0 0 0
11-03-2020 29.6 (15:10) 9.9 (00:00) 19.8 7.22 (00:40) 5.28 (00:40) 0 0 0 0 0
10-03-2020 25.6 (17:00) 8 (00:00) 16.8 5.83 (23:30) 4.17 (23:40) 0 0 0 0 0
09-03-2020 20.8 (17:30) 3.6 (00:00) 12.2 6.94 (16:40) 4.17 (16:30) 0 0 0 0 0

Gráficas

Temp. máximas Temp. mínimas Temp. medias Precipitaciones Rachas de viento máximas Velocidades máximas media en intervalos de 10 minutos

Datos horarios

Fecha y hora oficial Temperatura (ºC) Velocidad del viento (km/h) Dirección del viento Racha (km/h) Dirección de racha Precipitación (mm) Presión (hPa) Tendencia (hPa) Humedad (%)
2020-04-07 23:00:00 15.1 16 Sudeste 25 Sudeste 0 -- -- 79
2020-04-07 22:00:00 16.1 15 Sudeste 22 Sudeste 0 -- -- 77
2020-04-07 21:00:00 18.3 12 Sur 18 Sur 0 -- -- 69
2020-04-07 20:00:00 22.7 6 Noroeste 16 Noroeste 0 -- -- 56
2020-04-07 19:00:00 23.6 9 Oeste 15 Oeste 0 -- -- 54
2020-04-07 18:00:00 23.4 6 Sur 18 Oeste 0 -- -- 56
2020-04-07 17:00:00 23.1 5 Oeste 18 Sudoeste 0 -- -- 56
2020-04-07 16:00:00 21.9 10 Sur 27 Sur 0 -- -- 58
2020-04-07 15:00:00 21 17 Sur 27 Sur 0 -- -- 62
2020-04-07 14:00:00 21.4 11 Sudeste 25 Sur 0 -- -- 65
2020-04-07 13:00:00 20.2 10 Sur 21 Sur 0 -- -- 66
2020-04-07 12:00:00 18.6 13 Sudeste 21 Sur 0 -- -- 71
2020-04-07 11:00:00 17.9 10 Sudeste 19 Sur 0 -- -- 74
2020-04-07 10:00:00 15.9 9 Sudeste 15 Sudeste 0 -- -- 81
2020-04-07 09:00:00 14.5 8 Sudeste 13 Sudeste 0 -- -- 88
2020-04-07 08:00:00 13.5 5 Sudeste 12 Sudeste 0 -- -- 92
2020-04-07 07:00:00 13.3 8 Sudeste 18 Sudeste 0 -- -- 91
2020-04-07 06:00:00 13.3 12 Sudeste 20 Sudeste 0 -- -- 91
2020-04-07 05:00:00 13.6 11 Sudeste 19 Sudeste 0 -- -- 90
2020-04-07 04:00:00 13.8 9 Sudeste 14 Sudeste 0 -- -- 91
2020-04-07 03:00:00 13.9 9 Sur 14 Sur 0 -- -- 90
2020-04-07 02:00:00 13.9 10 Sudeste 17 Sudeste 0 -- -- 92
2020-04-07 01:00:00 13.2 9 Este 13 Sudeste 0 -- -- 95
2020-04-07 00:00:00 13.5 5 Sudeste 9 Sudeste 0 -- -- 93
2020-04-06 23:00:00 14.4 0 Calma 6 Este 0 -- -- 89
2020-04-06 22:00:00 15.4 6 Este 8 Este 0 -- -- 88
2020-04-06 21:00:00 16.6 4 Norte 11 Oeste 0 -- -- 84
2020-04-06 20:00:00 19.1 7 Noroeste 12 Oeste 0 -- -- 74
2020-04-06 19:00:00 18.2 6 Oeste 18 Oeste 0 -- -- 77
2020-04-06 18:00:00 18.9 13 Oeste 19 Oeste 0 -- -- 76
2020-04-06 17:00:00 19.8 12 Oeste 22 Oeste 0 -- -- 71
2020-04-06 16:00:00 19.5 13 Oeste 22 Oeste 0 -- -- 68
2020-04-06 15:00:00 20.6 10 Sudoeste 18 Sur 0 -- -- 61
2020-04-06 14:00:00 19.8 8 Sur 16 Sudoeste 0 -- -- 64
2020-04-06 13:00:00 18.1 9 Sur 20 Sudeste 0 -- -- 67
2020-04-06 12:00:00 17.2 13 Sur 23 Sudeste 0 -- -- 68
2020-04-06 11:00:00 16.1 13 Sudeste 26 Sur 0 -- -- 69
2020-04-06 10:00:00 13.7 14 Sudeste 25 Sur 0 -- -- 76
2020-04-06 09:00:00 13.5 15 Sudeste 23 Sudeste 0 -- -- 76
2020-04-06 08:00:00 12.2 13 Sudeste 24 Sudeste 0 -- -- 81
2020-04-06 07:00:00 11.9 15 Sudeste 26 Sudeste 0 -- -- 82
2020-04-06 06:00:00 11.3 12 Sudeste 19 Sudeste 0 -- -- 85
2020-04-06 05:00:00 11.6 13 Sudeste 19 Sudeste 0 -- -- 84
2020-04-06 04:00:00 12 15 Sudeste 32 Sudeste 0 -- -- 84
2020-04-06 03:00:00 12.4 19 Sudeste 30 Sudeste 0 -- -- 81
2020-04-06 02:00:00 12.3 19 Sudeste 31 Sur 0 -- -- 81
2020-04-06 01:00:00 12.5 19 Sudeste 28 Sudeste 0 -- -- 77
2020-04-06 00:00:00 12.6 16 Sudeste 23 Sudeste 0 -- -- 74
2020-04-05 23:00:00 13.7 17 Sudeste 24 Sudeste 0 -- -- 67
2020-04-05 22:00:00 14.5 12 Sudeste 21 Sudeste 0 -- -- 65
2020-04-05 21:00:00 15.9 12 Sudeste 26 Sur 0 -- -- 62
2020-04-05 20:00:00 17.9 12 Sur 29 Sudeste 0 -- -- 57
2020-04-05 19:00:00 19.4 18 Sur 29 Sur 0 -- -- 53
2020-04-05 18:00:00 21.3 15 Sur 27 Sudoeste 0 -- -- 49
2020-04-05 17:00:00 21.8 16 Sur 27 Sur 0 -- -- 48
2020-04-05 16:00:00 21.4 17 Sur 30 Sur 0 -- -- 48
2020-04-05 15:00:00 21.3 15 Sur 31 Sudeste 0 -- -- 51
2020-04-05 14:00:00 20.5 17 Sur 30 Sur 0 -- -- 50
2020-04-05 13:00:00 19.3 16 Sur 29 Sur 0 -- -- 56
2020-04-05 12:00:00 18.3 16 Sur 26 Sur 0 -- -- 61
2020-04-05 11:00:00 16.7 13 Sudeste 23 Sudeste 0 -- -- 65
2020-04-05 10:00:00 14.9 12 Sudeste 23 Sudeste 0 -- -- 70
2020-04-05 09:00:00 11 12 Sudeste 18 Sudeste 0 -- -- 84
2020-04-05 08:00:00 10.6 5 Sudeste 22 Sudeste 0 -- -- 84
2020-04-05 07:00:00 9.5 8 Este 21 Sudeste 0 -- -- 87
2020-04-05 06:00:00 8.9 10 Sudeste 15 Este 0 -- -- 89
2020-04-05 05:00:00 9.1 6 Este 10 Sudeste 0 -- -- 85
2020-04-05 04:00:00 10.6 3 Nordeste 26 Sudeste 0 -- -- 79
2020-04-05 03:00:00 11.3 14 Sudeste 30 Sudeste 0 -- -- 76
2020-04-05 02:00:00 12.3 18 Sudeste 31 Este 0 -- -- 73
2020-04-05 01:00:00 12.6 19 Sudeste 33 Sudeste 0 -- -- 73
2020-04-05 00:00:00 13.6 23 Sudeste 37 Sudeste 0 -- -- 70
2020-04-04 23:00:00 12.7 17 Sudeste 27 Sudeste 0 -- -- 75
2020-04-04 22:00:00 13 12 Sudeste 29 Sudeste 0 -- -- 75
2020-04-04 21:00:00 13.8 18 Sudeste 31 Sudeste 0 -- -- 71
2020-04-04 20:00:00 15.4 22 Sudeste 34 Sudeste 0 -- -- 68
2020-04-04 19:00:00 15.2 19 Sudeste 31 Sudeste 0 -- -- 65
2020-04-04 18:00:00 14.7 17 Sudeste 37 Sudeste 0.2 -- -- 66
2020-04-04 17:00:00 13.4 26 Sudeste 54 Sudeste 0 -- -- 72
2020-04-04 16:00:00 16.3 27 Sudeste 55 Sudeste 0 -- -- 51
2020-04-04 15:00:00 17.9 24 Sudeste 40 Sur 0 -- -- 41
2020-04-04 14:00:00 18.2 19 Sur 32 Sur 0 -- -- 41
2020-04-04 13:00:00 18.7 12 Sudeste 21 Sudeste 0 -- -- 47
2020-04-04 12:00:00 17.2 13 Sudeste 26 Sudeste 0 -- -- 48
2020-04-04 11:00:00 16.9 17 Sudeste 27 Sudeste 0 -- -- 50
2020-04-04 10:00:00 15.3 9 Este 15 Este 0 -- -- 58
2020-04-04 09:00:00 10.9 2 Este 8 Sudeste 0 -- -- 77
2020-04-04 08:00:00 8.5 6 Este 17 Este 0 -- -- 76
2020-04-04 07:00:00 8.3 9 Este 17 Este 0 -- -- 77
2020-04-04 06:00:00 8 9 Este 13 Este 0 -- -- 78
2020-04-04 05:00:00 8.3 9 Este 14 Este 0 -- -- 76
2020-04-04 04:00:00 8.6 10 Este 16 Este 0 -- -- 78
2020-04-04 03:00:00 8.8 9 Sudeste 14 Sudeste 0 -- -- 85
2020-04-04 02:00:00 9.2 9 Sudeste 13 Sudeste 0 -- -- 84
2020-04-04 01:00:00 10.5 9 Sudeste 18 Sudeste 0 -- -- 78
2020-04-04 00:00:00 10.8 13 Sudeste 22 Sudeste 0 -- -- 79
2020-04-03 23:00:00 11.9 13 Sudeste 21 Sur 0 -- -- 73
2020-04-03 22:00:00 12.6 12 Sudeste 21 Sudeste 0 -- -- 69
2020-04-03 21:00:00 14 9 Sur 22 Sur 0 -- -- 66
2020-04-03 20:00:00 16.5 13 Sur 24 Sur 0 -- -- 61
2020-04-03 19:00:00 17.3 10 Sur 18 Sur 0 -- -- 58
2020-04-03 18:00:00 18.3 2 Sudeste 13 Oeste 0 -- -- 60
2020-04-03 17:00:00 19.8 11 Noroeste 23 Noroeste 0 -- -- 57
2020-04-03 16:00:00 19.1 7 Noroeste 13 Oeste 0 -- -- 59
2020-04-03 15:00:00 18.5 5 Noroeste 15 Noroeste 0 -- -- 61
2020-04-03 14:00:00 17.8 4 Norte 15 Noroeste 0 -- -- 65
2020-04-03 13:00:00 16.7 6 Oeste 10 Oeste 0 -- -- 62
2020-04-03 12:00:00 15.8 4 Sur 9 Sur 0 -- -- 69
2020-04-03 11:00:00 14 3 Noroeste 8 Sudeste 0 -- -- 70
2020-04-03 10:00:00 12.2 3 Sudeste 12 Sudeste 0 -- -- 79
2020-04-03 09:00:00 10.2 2 Sudeste 11 Este 0 -- -- 89
2020-04-03 08:00:00 7.3 5 Este 12 Este 0 -- -- 92
2020-04-03 07:00:00 7.4 10 Sudeste 14 Este 0 -- -- 93
2020-04-03 06:00:00 7.3 10 Sudeste 16 Sudeste 0 -- -- 94
2020-04-03 05:00:00 7.4 13 Sudeste 18 Sudeste 0 -- -- 94
2020-04-03 04:00:00 7.2 12 Sudeste 15 Este 0 -- -- 95
2020-04-03 03:00:00 7 11 Sudeste 14 Sudeste 0 -- -- 95
2020-04-03 02:00:00 7.6 4 Sur 7 Sur 0 -- -- 94
2020-04-03 01:00:00 7.2 0 Calma 4 Sudeste 0 -- -- 94
2020-04-03 00:00:00 7.5 3 Sudeste 5 Este 0 -- -- 91
2020-04-02 23:00:00 8.3 0 Calma 4 Sudeste 0 -- -- 88
2020-04-02 22:00:00 9.3 4 Sudeste 7 Sudoeste 0 -- -- 85
2020-04-02 21:00:00 10.9 5 Oeste 13 Noroeste 0 -- -- 78
2020-04-02 20:00:00 12.6 12 Noroeste 21 Noroeste 0 -- -- 68
2020-04-02 19:00:00 14.3 13 Noroeste 25 Noroeste 0 -- -- 62
2020-04-02 18:00:00 14.1 13 Noroeste 26 Noroeste 0 -- -- 65
2020-04-02 17:00:00 14 19 Norte 34 Norte 0 -- -- 66
2020-04-02 16:00:00 13.3 17 Noroeste 31 Noroeste 0 -- -- 69
2020-04-02 15:00:00 13.6 12 Noroeste 22 Noroeste 0 -- -- 64
2020-04-02 14:00:00 12.9 9 Noroeste 15 Oeste 0 -- -- 70
2020-04-02 13:00:00 13.2 5 Noroeste 14 Sudeste 0 -- -- 64
2020-04-02 12:00:00 12.1 7 Sudeste 21 Sudeste 0 -- -- 73
2020-04-02 11:00:00 11.3 13 Sudeste 25 Sudeste 0 -- -- 79
2020-04-02 10:00:00 8.3 10 Sudeste 17 Sudeste 0 -- -- 91
2020-04-02 09:00:00 7.5 9 Este 27 Este 0 -- -- 93
2020-04-02 08:00:00 7.3 20 Este 31 Este 0.6 -- -- 95
2020-04-02 07:00:00 7.1 6 Sudoeste 28 Oeste 5.6 -- -- 96
2020-04-02 06:00:00 9 10 Sudeste 14 Este 0.6 -- -- 95
2020-04-02 05:00:00 9 6 Este 13 Sudeste 1.2 -- -- 96
2020-04-02 04:00:00 9.2 6 Sur 12 Sur 1 -- -- 95
2020-04-02 03:00:00 9.3 2 Sudeste 15 Sudeste 0.4 -- -- 94
2020-04-02 02:00:00 9.2 11 Sudeste 18 Sudeste 0 -- -- 94
2020-04-02 01:00:00 9.1 12 Sudeste 18 Sudeste 0 -- -- 94
2020-04-02 00:00:00 8.5 13 Sudeste 18 Sudeste 0 -- -- 95
2020-04-01 23:00:00 8.4 11 Sudeste 14 Sudeste 0 -- -- 94
2020-04-01 22:00:00 8.9 5 Sudeste 6 Sudeste 0 -- -- 90
2020-04-01 21:00:00 9.3 0 Calma 42 Oeste 1.2 -- -- 92
2020-04-01 20:00:00 11.9 10 Oeste 20 Oeste 0 -- -- 77
2020-04-01 19:00:00 13.7 16 Oeste 37 Oeste 0 -- -- 76
2020-04-01 18:00:00 14.3 21 Oeste 45 Oeste 0 -- -- 66
2020-04-01 17:00:00 15.6 16 Oeste 30 Oeste 0 -- -- 57
2020-04-01 16:00:00 16.2 15 Sudoeste 32 Sudoeste 0 -- -- 59
2020-04-01 15:00:00 16.3 14 Oeste 26 Sudoeste 0 -- -- 55
2020-04-01 14:00:00 15 11 Sudoeste 19 Sudoeste 0 -- -- 64
2020-04-01 13:00:00 13.2 13 Oeste 26 Oeste 0 -- -- 76
2020-04-01 12:00:00 12 10 Oeste 18 Oeste 0 -- -- 83
2020-04-01 11:00:00 11.2 5 Oeste 9 Oeste 0 -- -- 92
2020-04-01 10:00:00 10 6 Oeste 14 Oeste 0 -- -- 97
2020-04-01 09:00:00 9.5 7 Oeste 12 Oeste 0 -- -- 97
2020-04-01 08:00:00 9.2 4 Oeste 7 Sudoeste 0 -- -- 96
2020-04-01 07:00:00 9.4 4 Sudoeste 15 Sudoeste 0 -- -- 96
2020-04-01 06:00:00 8.9 8 Sur 10 Sur 0 -- -- 96
2020-04-01 05:00:00 9.7 4 Sur 10 Sur 0 -- -- 96
2020-04-01 04:00:00 10.4 3 Sur 16 Sudoeste 0 -- -- 97
2020-04-01 03:00:00 10.7 9 Sudoeste 17 Sudoeste 0 -- -- 97
2020-04-01 02:00:00 10.9 5 Sudoeste 10 Sudoeste 0.2 -- -- 97
2020-04-01 01:00:00 11.2 8 Sudoeste 14 Sudoeste 0.2 -- -- 96
2020-04-01 00:00:00 11.5 3 Sur 14 Sudoeste 0 -- -- 95
2020-03-31 23:00:00 11.8 6 Sur 13 Sudoeste 0 -- -- 94
2020-03-31 22:00:00 12.1 6 Sur 17 Sur 1.2 -- -- 94
2020-03-31 21:00:00 12.7 10 Sur 19 Sur 0 -- -- 91
2020-03-31 20:00:00 13.2 13 Sudoeste 25 Sur 0.4 -- -- 92
2020-03-31 19:00:00 13.9 22 Sur 41 Sudeste 0.2 -- -- 88
2020-03-31 18:00:00 13.4 9 Sudeste 52 Oeste 7 -- -- 96
2020-03-31 17:00:00 16.2 19 Sudeste 34 Sur 0 -- -- 72
2020-03-31 16:00:00 17.6 19 Sur 34 Sudeste 0.2 -- -- 74
2020-03-31 15:00:00 16.4 21 Sur 37 Sur 0 -- -- 75
2020-03-31 14:00:00 16.6 20 Sudeste 40 Sur 0 -- -- 75
2020-03-31 13:00:00 15.4 21 Sudeste 32 Sur 0 -- -- 75
2020-03-31 12:00:00 14.5 13 Sudeste 24 Sudeste 0 -- -- 89
2020-03-31 11:00:00 12.2 13 Sudeste 28 Sudeste 0 -- -- 93
2020-03-31 10:00:00 11 16 Sudeste 27 Sudeste 0.2 -- -- 96
2020-03-31 09:00:00 10.5 17 Sudeste 26 Sudeste 1.4 -- -- 96
2020-03-31 08:00:00 10.2 8 Sur 25 Sudoeste 3 -- -- 95
2020-03-31 07:00:00 10.3 13 Sudeste 21 Sudeste 0 -- -- 91
2020-03-31 06:00:00 10.3 12 Sudeste 28 Sudeste 0 -- -- 93
2020-03-31 05:00:00 10.5 14 Sudeste 25 Este 1.4 -- -- 96
2020-03-31 04:00:00 10.3 9 Sudeste 14 Sudeste 5.6 -- -- 97
2020-03-31 03:00:00 10.6 5 Norte 10 Norte 4.4 -- -- 97
2020-03-31 02:00:00 10.9 4 Este 9 Este 2.8 -- -- 97
2020-03-31 01:00:00 10.9 3 Norte 14 Nordeste 2.8 -- -- 97
2020-03-31 00:00:00 10.8 10 Este 21 Este 1.6 -- -- 97
2020-03-30 23:00:00 10.5 9 Nordeste 15 Nordeste 1.8 -- -- 96
2020-03-30 22:00:00 10.7 8 Nordeste 13 Nordeste 1.8 -- -- 95
2020-03-30 21:00:00 11.4 6 Noroeste 18 Noroeste 0.6 -- -- 94
2020-03-30 20:00:00 12 8 Sudoeste 25 Oeste 0.2 -- -- 90
2020-03-30 19:00:00 12.6 17 Oeste 36 Oeste 0.4 -- -- 89
2020-03-30 18:00:00 15.5 12 Sudoeste 23 Oeste 0 -- -- 64
2020-03-30 17:00:00 16.2 14 Oeste 22 Sudoeste 0 -- -- 66
2020-03-30 16:00:00 18.3 6 Sudoeste 21 Sudoeste 0 -- -- 58
2020-03-30 15:00:00 17.3 8 Oeste 16 Sudoeste 0 -- -- 63
2020-03-30 14:00:00 16.3 9 Oeste 15 Noroeste 0 -- -- 72
2020-03-30 13:00:00 15.7 2 Oeste 12 Oeste 0 -- -- 71
2020-03-30 12:00:00 14.2 4 Oeste 13 Oeste 0 -- -- 79
2020-03-30 11:00:00 13.4 10 Oeste 15 Oeste 0 -- -- 85
2020-03-30 10:00:00 12.8 5 Oeste 9 Oeste 0 -- -- 88
2020-03-30 09:00:00 12 0 Calma 5 Oeste 0.2 -- -- 93
2020-03-30 08:00:00 11.6 2 Sudoeste 8 Oeste 0 -- -- 92
2020-03-30 07:00:00 11.6 4 Oeste 8 Oeste 0 -- -- 92
2020-03-30 06:00:00 11.6 2 Oeste 9 Sudoeste 0 -- -- 91
2020-03-30 05:00:00 11.5 3 Sudoeste 6 Sudoeste 0 -- -- 92
2020-03-30 04:00:00 11.8 3 Sur 15 Sur 0 -- -- 91
2020-03-30 03:00:00 12.2 2 Sur 6 Sudoeste 0 -- -- 86
2020-03-30 02:00:00 12 3 Sur 14 Oeste 0 -- -- 87
2020-03-30 01:00:00 11.9 8 Sudoeste 14 Sudoeste 0 -- -- 87
2020-03-30 00:00:00 12.7 6 Sudoeste 17 Oeste 0 -- -- 82
2020-03-29 23:00:00 14.4 12 Oeste 23 Sudoeste 0 -- -- 75
2020-03-29 22:00:00 14 2 Sudoeste 6 Sudoeste 0 -- -- 66
2020-03-29 21:00:00 15.3 4 Sudoeste 10 Oeste 0 -- -- 55
2020-03-29 20:00:00 16.9 9 Oeste 14 Oeste 0 -- -- 50
2020-03-29 19:00:00 17.8 12 Oeste 19 Noroeste 0 -- -- 47
2020-03-29 18:00:00 19.9 10 Noroeste 16 Noroeste 0 -- -- 43
2020-03-29 17:00:00 20 7 Oeste 18 Oeste 0 -- -- 46
2020-03-29 16:00:00 18.3 5 Sudoeste 14 Noroeste 0 -- -- 54
2020-03-29 15:00:00 19.5 4 Sur 10 Oeste 0 -- -- 49
2020-03-29 14:00:00 18.3 6 Oeste 13 Oeste 0 -- -- 57
2020-03-29 13:00:00 17.2 5 Sur 11 Sudoeste 0 -- -- 59
2020-03-29 12:00:00 15.9 4 Oeste 11 Sur 0 -- -- 66
2020-03-29 11:00:00 14.4 6 Sudeste 18 Sudeste 0 -- -- 69
2020-03-29 10:00:00 11.8 10 Sudeste 15 Sudeste 0 -- -- 79
2020-03-29 09:00:00 7.7 6 Sudeste 9 Sudeste 0 -- -- 94
2020-03-29 08:00:00 6.7 7 Sudeste 10 Sudeste 0 -- -- 92
2020-03-29 07:00:00 7.8 9 Sudeste 15 Sudeste 0 -- -- 91
2020-03-29 06:00:00 8.1 11 Sudeste 15 Sudeste 0 -- -- 91
2020-03-29 05:00:00 8.6 10 Sudeste 16 Sudeste 0 -- -- 89
2020-03-29 03:00:00 10.5 12 Sudeste 18 Sudeste 0 -- -- 84
2020-03-29 01:00:00 9.5 12 Sudeste 21 Sudeste 0 -- -- 87
2020-03-29 00:00:00 9.8 14 Sudeste 22 Sudeste 0 -- -- 86
2020-03-28 23:00:00 10.3 14 Sudeste 24 Sudeste 0 -- -- 84
2020-03-28 22:00:00 11 14 Sudeste 23 Sudeste 0 -- -- 80
2020-03-28 21:00:00 11.5 12 Sudeste 19 Sudeste 0 -- -- 78
2020-03-28 20:00:00 12.6 10 Sur 21 Sur 0 -- -- 74
2020-03-28 19:00:00 15.7 14 Sur 23 Sudoeste 0 -- -- 62
2020-03-28 18:00:00 18.4 8 Sudoeste 13 Sudoeste 0 -- -- 55
2020-03-28 17:00:00 16.3 8 Sudoeste 18 Sudoeste 0 -- -- 61
2020-03-28 16:00:00 17.1 9 Sudoeste 15 Sudoeste 0 -- -- 59
2020-03-28 15:00:00 17.2 6 Este 14 Este 0 -- -- 55
2020-03-28 14:00:00 17.5 6 Este 14 Este 0 -- -- 58
2020-03-28 13:00:00 16.6 4 Noroeste 12 Noroeste 0 -- -- 58
2020-03-28 12:00:00 16.2 5 Norte 10 Norte 0 -- -- 64
2020-03-28 11:00:00 13.8 6 Norte 12 Norte 0 -- -- 70
2020-03-28 10:00:00 13.5 9 Norte 12 Norte 0 -- -- 75
2020-03-28 09:00:00 10.4 3 Nordeste 12 Sudeste 0 -- -- 88
2020-03-28 08:00:00 7 4 Este 7 Este 0 -- -- 97
2020-03-28 07:00:00 5.4 3 Este 7 Nordeste 0 -- -- 95
2020-03-28 06:00:00 5.5 2 Este 7 Este 0 -- -- 95
2020-03-28 05:00:00 5.9 4 Sudeste 10 Sudeste 0 -- -- 93
2020-03-28 04:00:00 6.9 7 Sudeste 11 Sudeste 0 -- -- 91
2020-03-28 03:00:00 7.3 6 Este 10 Sudeste 0 -- -- 92
2020-03-28 02:00:00 6.5 4 Nordeste 8 Sudeste 0 -- -- 91
2020-03-28 01:00:00 7.6 4 Sudeste 9 Nordeste 0 -- -- 87
2020-03-28 00:00:00 8.8 0 Calma 10 Sudoeste 0 -- -- 82
2020-03-27 23:00:00 9.6 7 Sudoeste 12 Oeste 0 -- -- 78
2020-03-27 22:00:00 10.3 4 Noroeste 13 Sudoeste 0 -- -- 78
2020-03-27 21:00:00 11 4 Sudoeste 6 Sudoeste 0 -- -- 72
2020-03-27 20:00:00 12.6 2 Oeste 24 Oeste 0 -- -- 66
2020-03-27 19:00:00 15.2 14 Oeste 36 Sudoeste 0 -- -- 56
2020-03-27 18:00:00 16.1 22 Oeste 37 Oeste 0 -- -- 51
2020-03-27 17:00:00 16.3 27 Oeste 42 Oeste 0 -- -- 52
2020-03-27 16:00:00 16.4 29 Oeste 45 Oeste 0 -- -- 55
2020-03-27 15:00:00 16.6 28 Oeste 44 Oeste 0 -- -- 55
2020-03-27 14:00:00 16.4 28 Oeste 43 Oeste 0 -- -- 57
2020-03-27 13:00:00 17.1 24 Oeste 41 Sudoeste 0 -- -- 55
2020-03-27 12:00:00 16.3 22 Sudoeste 36 Sudoeste 0 -- -- 56
2020-03-27 11:00:00 15 13 Sudoeste 23 Sudoeste 0 -- -- 74
2020-03-27 10:00:00 12.4 9 Sudoeste 17 Oeste 0 -- -- 85
2020-03-27 09:00:00 11 4 Oeste 11 Noroeste 0 -- -- 87
2020-03-27 08:00:00 9.2 0 Calma 14 Sudeste 0 -- -- 93
2020-03-27 07:00:00 8.3 14 Sudeste 21 Sudeste 0 -- -- 94
2020-03-27 06:00:00 8.5 9 Sudeste 15 Sudeste 0 -- -- 92
2020-03-27 05:00:00 8.8 11 Sudeste 15 Sudeste 0 -- -- 91
2020-03-27 04:00:00 9 9 Sudeste 14 Sudeste 0 -- -- 91
2020-03-27 03:00:00 9.1 8 Sudeste 13 Sudeste 0 -- -- 91
2020-03-27 02:00:00 9.9 2 Este 12 Sudoeste 0 -- -- 88
2020-03-27 01:00:00 11 6 Sudoeste 12 Oeste 0 -- -- 85
2020-03-27 00:00:00 12 7 Oeste 22 Sudoeste 0 -- -- 81
2020-03-26 23:00:00 12.8 11 Oeste 26 Sudoeste 0 -- -- 79
2020-03-26 22:00:00 13.9 14 Sudoeste 28 Sudoeste 0 -- -- 75
2020-03-26 21:00:00 14.6 18 Sudoeste 30 Sudoeste 0 -- -- 73
2020-03-26 20:00:00 16.1 19 Sudoeste 33 Sudoeste 0 -- -- 64
2020-03-26 19:00:00 18.7 19 Sudoeste 34 Oeste 0 -- -- 47
2020-03-26 18:00:00 19.5 22 Oeste 37 Oeste 0 -- -- 53
2020-03-26 17:00:00 19.4 19 Oeste 39 Oeste 0 -- -- 55
2020-03-26 16:00:00 19.7 21 Oeste 35 Oeste 0 -- -- 55
2020-03-26 15:00:00 18.4 17 Oeste 33 Oeste 0 -- -- 63
2020-03-26 14:00:00 18.1 20 Oeste 30 Oeste 0 -- -- 67
2020-03-26 13:00:00 17.3 19 Oeste 30 Sudoeste 0 -- -- 72
2020-03-26 12:00:00 14.8 18 Sudoeste 30 Oeste 0 -- -- 79
2020-03-26 11:00:00 13.7 16 Oeste 27 Oeste 0 -- -- 84
2020-03-26 10:00:00 12.4 14 Oeste 25 Oeste 0 -- -- 90
2020-03-26 09:00:00 11.8 12 Oeste 22 Sudoeste 0 -- -- 92
2020-03-26 08:00:00 11.5 14 Sudoeste 23 Sudoeste 0 -- -- 92
2020-03-26 07:00:00 11.5 16 Sudoeste 24 Sudoeste 0 -- -- 91
2020-03-26 06:00:00 11.6 12 Sudoeste 18 Sudoeste 0 -- -- 90
2020-03-26 05:00:00 11.4 9 Sudoeste 18 Sudoeste 0 -- -- 90
2020-03-26 04:00:00 11.5 8 Sudoeste 21 Sudoeste 0 -- -- 89
2020-03-26 03:00:00 11.7 12 Sudoeste 22 Sudoeste 0 -- -- 89
2020-03-26 02:00:00 11.9 10 Sudoeste 19 Sur 0 -- -- 89
2020-03-26 01:00:00 11.8 9 Sudoeste 17 Sur 0 -- -- 89
2020-03-26 00:00:00 11.7 8 Sur 14 Sur 0 -- -- 87
2020-03-25 23:00:00 11.3 9 Sudeste 17 Sur 0 -- -- 89
2020-03-25 22:00:00 11.7 8 Sudeste 21 Sudeste 0 -- -- 86
2020-03-25 21:00:00 11.3 10 Sudeste 20 Sudeste 0 -- -- 89
2020-03-25 20:00:00 12 12 Sudeste 20 Sudeste 0 -- -- 85
2020-03-25 19:00:00 13.1 13 Sur 23 Sudeste 0 -- -- 80
2020-03-25 18:00:00 14.7 14 Sudeste 24 Sur 0 -- -- 75
2020-03-25 17:00:00 16.4 16 Sudeste 27 Sudeste 0 -- -- 68
2020-03-25 16:00:00 16 15 Sudeste 29 Sur 0 -- -- 71
2020-03-25 15:00:00 15.9 18 Sudeste 28 Sur 0 -- -- 71
2020-03-25 14:00:00 14.6 16 Sur 26 Sudeste 0 -- -- 76
2020-03-25 13:00:00 15.2 12 Sur 24 Sur 0 -- -- 79
2020-03-25 12:00:00 15 9 Oeste 16 Oeste 0 -- -- 78
2020-03-25 11:00:00 13.9 9 Sudoeste 15 Oeste 0 -- -- 82
2020-03-25 10:00:00 13.2 6 Sudoeste 14 Sudoeste 0 -- -- 83
2020-03-25 09:00:00 10.1 4 Sudeste 8 Sudeste 0 -- -- 90
2020-03-25 08:00:00 8.3 0 Calma 8 Este 0 -- -- 94
2020-03-25 07:00:00 7.3 5 Este 7 Este 0 -- -- 93
2020-03-25 06:00:00 8.1 0 Calma 6 Este 0 -- -- 89
2020-03-25 05:00:00 8.6 4 Nordeste 9 Nordeste 0 -- -- 85
2020-03-25 04:00:00 8.7 2 Nordeste 12 Nordeste 0 -- -- 85
2020-03-25 03:00:00 9.4 8 Nordeste 15 Nordeste 0 -- -- 85
2020-03-25 02:00:00 10.5 5 Nordeste 14 Nordeste 0 -- -- 81
2020-03-25 01:00:00 11.7 2 Norte 5 Norte 0 -- -- 76
2020-03-25 00:00:00 12.2 2 Nordeste 9 Nordeste 0 -- -- 73
2020-03-24 23:00:00 12.7 4 Nordeste 19 Este 0 -- -- 71
2020-03-24 22:00:00 12.7 14 Este 23 Este 0 -- -- 67
2020-03-24 21:00:00 13 13 Este 20 Este 0 -- -- 67
2020-03-24 20:00:00 15.1 12 Este 25 Nordeste 0 -- -- 59
2020-03-24 19:00:00 17 16 Nordeste 31 Nordeste 0 -- -- 53
2020-03-24 18:00:00 18.2 23 Nordeste 39 Nordeste 0 -- -- 49
2020-03-24 17:00:00 19.2 22 Nordeste 37 Norte 0 -- -- 49
2020-03-24 16:00:00 19.3 11 Nordeste 26 Norte 0 -- -- 52
2020-03-24 15:00:00 19.2 13 Nordeste 34 Este 0 -- -- 54
2020-03-24 14:00:00 19.4 18 Este 30 Este 0 -- -- 52
2020-03-24 13:00:00 18 14 Norte 29 Nordeste 0 -- -- 61
2020-03-24 12:00:00 16.5 13 Norte 28 Nordeste 0 -- -- 70
2020-03-24 11:00:00 13.5 11 Norte 21 Norte 0 -- -- 77
2020-03-24 10:00:00 12 8 Norte 18 Nordeste 0 -- -- 84
2020-03-24 09:00:00 9.9 9 Nordeste 17 Nordeste 0 -- -- 90
2020-03-24 08:00:00 8.5 5 Norte 12 Norte 0 -- -- 95
2020-03-24 07:00:00 7.8 4 Nordeste 13 Nordeste 0 -- -- 94
2020-03-24 06:00:00 8.9 8 Nordeste 17 Nordeste 0 -- -- 94
2020-03-24 05:00:00 9.5 9 Norte 18 Nordeste 0 -- -- 94
2020-03-24 04:00:00 9.4 9 Nordeste 20 Nordeste 0 -- -- 96
2020-03-24 03:00:00 9.6 10 Nordeste 16 Nordeste 0.6 -- -- 96
2020-03-24 02:00:00 9.7 6 Norte 13 Nordeste 0.6 -- -- 96
2020-03-24 01:00:00 9.6 8 Nordeste 21 Nordeste 0 -- -- 95
2020-03-24 00:00:00 9.8 7 Norte 14 Norte 0 -- -- 96
2020-03-23 23:00:00 9.5 7 Norte 10 Norte 0.8 -- -- 95
2020-03-23 22:00:00 9.4 3 Nordeste 8 Norte 0.2 -- -- 94
2020-03-23 21:00:00 9.4 3 Este 8 Sudeste 0 -- -- 94
2020-03-23 20:00:00 9.4 7 Sudeste 17 Este 0.6 -- -- 90
2020-03-23 19:00:00 9.8 12 Nordeste 39 Sur 0.4 -- -- 90
2020-03-23 18:00:00 11.9 12 Sur 27 Sudeste 0 -- -- 75
2020-03-23 17:00:00 13.5 21 Sur 34 Sudeste 0 -- -- 63
2020-03-23 16:00:00 16.3 12 Sudeste 23 Sur 0 -- -- 56
2020-03-23 15:00:00 16 5 Norte 17 Noroeste 0 -- -- 54
2020-03-23 14:00:00 16.7 3 Este 15 Este 0 -- -- 54
2020-03-23 13:00:00 15.7 5 Noroeste 17 Norte 0 -- -- 62
2020-03-23 12:00:00 15.5 5 Este 16 Sudeste 0 -- -- 64
2020-03-23 11:00:00 14.5 7 Sur 14 Sur 0 -- -- 68
2020-03-23 10:00:00 13 5 Este 12 Nordeste 0 -- -- 70
2020-03-23 09:00:00 10.4 3 Este 8 Sudeste 0 -- -- 86
2020-03-23 08:00:00 6.3 0 Calma 6 Este 0 -- -- 98
2020-03-23 07:00:00 4.8 2 Este 6 Sudeste 0 -- -- 96
2020-03-23 06:00:00 5.5 4 Sudeste 6 Sudeste 0 -- -- 94
2020-03-23 05:00:00 6.3 3 Este 15 Este 0 -- -- 95
2020-03-23 04:00:00 6.3 4 Este 12 Sudeste 0 -- -- 93
2020-03-23 03:00:00 6.6 7 Sudeste 12 Sudeste 0 -- -- 95
2020-03-23 02:00:00 7.2 10 Sudeste 14 Sudeste 0 -- -- 94
2020-03-23 01:00:00 7.4 12 Sudeste 13 Sudeste 0 -- -- 94
2020-03-23 00:00:00 7.8 9 Sudeste 14 Sudeste 0 -- -- 92
2020-03-22 23:00:00 8.3 12 Sudeste 16 Sudeste 0 -- -- 91
2020-03-22 22:00:00 8 9 Sudeste 10 Sudeste 0 -- -- 90
2020-03-22 21:00:00 9.4 3 Este 9 Norte 0 -- -- 84
2020-03-22 20:00:00 10.9 2 Sudoeste 8 Sudoeste 0 -- -- 78
2020-03-22 19:00:00 14 5 Oeste 12 Oeste 0 -- -- 67
2020-03-22 18:00:00 14.6 8 Oeste 21 Oeste 0 -- -- 66
2020-03-22 17:00:00 14.1 9 Oeste 19 Oeste 0 -- -- 66
2020-03-22 16:00:00 12.7 8 Oeste 15 Oeste 0 -- -- 75
2020-03-22 15:00:00 12.9 4 Oeste 13 Oeste 0 -- -- 68
2020-03-22 14:00:00 12.9 5 Oeste 9 Oeste 0.2 -- -- 82
2020-03-22 13:00:00 10.8 3 Nordeste 14 Norte 0.6 -- -- 84
2020-03-22 12:00:00 11.4 9 Norte 16 Noroeste 0.2 -- -- 81
2020-03-22 11:00:00 11.6 5 Nordeste 11 Noroeste 0 -- -- 77
2020-03-22 10:00:00 10.6 4 Norte 8 Noroeste 0 -- -- 83
2020-03-22 09:00:00 9.7 3 Norte 8 Norte 0 -- -- 87
2020-03-22 08:00:00 8.5 0 Calma 8 Sudeste 0 -- -- 93
2020-03-22 07:00:00 8.5 6 Este 14 Sudeste 0 -- -- 90
2020-03-22 06:00:00 8.5 9 Sudeste 12 Sudeste 0 -- -- 94
2020-03-22 05:00:00 8.1 6 Sudeste 9 Este 0 -- -- 95
2020-03-22 04:00:00 7.6 5 Este 7 Este 0 -- -- 96
2020-03-22 03:00:00 7.6 2 Sudoeste 14 Sudeste 0 -- -- 94
2020-03-22 02:00:00 8.1 10 Sudeste 15 Sudeste 0.2 -- -- 93
2020-03-22 01:00:00 7.8 9 Sudeste 17 Este 0 -- -- 93
2020-03-22 00:00:00 7.4 13 Sudeste 20 Este 0 -- -- 94
2020-03-21 23:00:00 7.7 14 Sudeste 18 Sudeste 0 -- -- 94
2020-03-21 22:00:00 8.5 13 Sudeste 21 Sudeste 0 -- -- 92
2020-03-21 21:00:00 9 5 Sur 14 Noroeste 0.2 -- -- 92
2020-03-21 20:00:00 9.5 5 Oeste 24 Sudeste 0 -- -- 89
2020-03-21 19:00:00 10.9 19 Sudeste 30 Sudeste 0 -- -- 85
2020-03-21 18:00:00 10.6 13 Sudeste 26 Sudeste 0 -- -- 90
2020-03-21 17:00:00 10.3 14 Este 21 Este 2 -- -- 93
2020-03-21 16:00:00 10.8 8 Sudeste 30 Sudoeste 2.8 -- -- 89
2020-03-21 15:00:00 12.8 15 Sudoeste 26 Sudoeste 0.2 -- -- 77
2020-03-21 14:00:00 15.7 6 Sur 20 Sudoeste 0 -- -- 57
2020-03-21 13:00:00 14.1 9 Sur 19 Sudoeste 0 -- -- 67
2020-03-21 12:00:00 14.1 12 Sudoeste 24 Sur 0 -- -- 66
2020-03-21 11:00:00 12.3 10 Sur 21 Sur 0 -- -- 79
2020-03-21 10:00:00 11.7 8 Sudeste 13 Sudeste 0 -- -- 90
2020-03-21 09:00:00 9.2 10 Sudeste 14 Sudeste 0 -- -- 95
2020-03-21 08:00:00 9.1 7 Sudeste 15 Sudeste 0.2 -- -- 96
2020-03-21 07:00:00 8.6 8 Sudeste 17 Sudeste 0.2 -- -- 95
2020-03-21 06:00:00 9 10 Sudeste 15 Sudeste 1 -- -- 96
2020-03-21 05:00:00 8.9 8 Sur 31 Sudoeste 3 -- -- 97
2020-03-21 04:00:00 9.2 18 Sudoeste 41 Sudoeste 8.2 -- -- 97
2020-03-21 03:00:00 11.3 22 Sudoeste 41 Sudoeste 1.4 -- -- 89
2020-03-21 02:00:00 13.5 4 Sur 22 Sudeste 0 -- -- 74
2020-03-21 01:00:00 13.2 7 Sudeste 26 Sudeste 0 -- -- 76
2020-03-21 00:00:00 13.4 14 Sudeste 24 Sudeste 0 -- -- 77
2020-03-20 23:00:00 13.6 13 Sudeste 32 Sur 0 -- -- 76
2020-03-20 22:00:00 13.7 20 Sudeste 35 Sudeste 0 -- -- 74
2020-03-20 21:00:00 14.1 19 Sudeste 40 Sudeste 0 -- -- 73
2020-03-20 20:00:00 16.2 16 Sudeste 28 Sudeste 0 -- -- 58
2020-03-20 19:00:00 17.3 12 Sudeste 25 Sudeste 0 -- -- 54
2020-03-20 18:00:00 18.9 12 Sudoeste 22 Sudoeste 0 -- -- 55
2020-03-20 17:00:00 19.1 12 Sur 22 Sur 0 -- -- 52
2020-03-20 16:00:00 17.9 13 Sudeste 23 Sudeste 0 -- -- 59
2020-03-20 15:00:00 18.6 10 Sudeste 23 Sudoeste 0 -- -- 57
2020-03-20 14:00:00 17.3 15 Sur 27 Sudeste 0 -- -- 59
2020-03-20 13:00:00 18.4 9 Sur 19 Este 0 -- -- 60
2020-03-20 12:00:00 16.9 13 Sudeste 24 Sudeste 0 -- -- 64
2020-03-20 11:00:00 16.9 12 Sudeste 22 Sudeste 0 -- -- 62
2020-03-20 10:00:00 14.9 8 Este 16 Este 0 -- -- 64
2020-03-20 09:00:00 12 7 Este 13 Este 0 -- -- 79
2020-03-20 08:00:00 9.4 10 Sudeste 16 Sudeste 0 -- -- 93
2020-03-20 07:00:00 9.4 10 Sudeste 13 Este 0 -- -- 94
2020-03-20 06:00:00 9.5 8 Este 12 Este 0 -- -- 93
2020-03-20 05:00:00 10.4 6 Sudeste 13 Sur 0 -- -- 87
2020-03-20 04:00:00 12.2 8 Sur 22 Sur 0 -- -- 83
2020-03-20 03:00:00 11.6 6 Sur 13 Sur 0 -- -- 88
2020-03-20 02:00:00 12.1 7 Sudeste 22 Sudeste 0 -- -- 85
2020-03-20 01:00:00 12.5 17 Sudeste 26 Sudeste 0 -- -- 84
2020-03-20 00:00:00 12.4 13 Sudeste 19 Sudeste 0 -- -- 83
2020-03-19 23:00:00 12.5 10 Sudeste 23 Sur 0 -- -- 80
2020-03-19 22:00:00 12.8 10 Sudeste 17 Sudeste 0 -- -- 77
2020-03-19 21:00:00 13.7 7 Sudeste 15 Sudeste 0 -- -- 74
2020-03-19 20:00:00 15 10 Sudeste 20 Sudeste 0 -- -- 71
2020-03-19 19:00:00 16 12 Sur 26 Sur 0 -- -- 68
2020-03-19 18:00:00 17.3 18 Sur 29 Sur 0 -- -- 65
2020-03-19 17:00:00 18.2 17 Sur 28 Sudoeste 0 -- -- 61
2020-03-19 16:00:00 20.6 9 Sur 19 Sur 0 -- -- 55
2020-03-19 15:00:00 20.9 8 Sur 19 Sudeste 0 -- -- 57
2020-03-19 14:00:00 20 9 Sudeste 22 Sudeste 0 -- -- 50
2020-03-19 13:00:00 19.1 4 Nordeste 14 Este 0 -- -- 54
2020-03-19 12:00:00 16.7 6 Este 16 Sudeste 0 -- -- 58
2020-03-19 11:00:00 17.3 9 Sudeste 14 Sudeste 0 -- -- 59
2020-03-19 10:00:00 16 8 Sudeste 14 Este 0 -- -- 69
2020-03-19 09:00:00 12.8 0 Calma 9 Este 0 -- -- 82
2020-03-19 08:00:00 9.5 5 Este 13 Este 0 -- -- 90
2020-03-19 07:00:00 9.1 3 Este 6 Este 0 -- -- 92
2020-03-19 06:00:00 8.8 5 Este 8 Este 0 -- -- 95
2020-03-19 05:00:00 9.5 2 Este 9 Sur 0 -- -- 91
2020-03-19 04:00:00 10 3 Este 8 Este 0 -- -- 90
2020-03-19 03:00:00 10.4 5 Sudeste 8 Sur 0 -- -- 88
2020-03-19 02:00:00 11.5 2 Nordeste 13 Sudeste 0 -- -- 85
2020-03-19 01:00:00 12.4 5 Sudeste 21 Sudeste 0 -- -- 82
2020-03-19 00:00:00 12.7 14 Sudeste 25 Sudeste 0 -- -- 83
2020-03-18 23:00:00 13.4 14 Sudeste 28 Sudeste 0 -- -- 78
2020-03-18 22:00:00 14.2 20 Sudeste 30 Sudeste 0 -- -- 72
2020-03-18 21:00:00 14.8 14 Sudeste 24 Sudeste 0 -- -- 70
2020-03-18 20:00:00 16.1 10 Sudeste 24 Sur 0 -- -- 66
2020-03-18 19:00:00 18.4 12 Sur 21 Sur 0 -- -- 58
2020-03-18 18:00:00 20.8 13 Sur 22 Sudoeste 0 -- -- 53
2020-03-18 17:00:00 22.5 10 Sudoeste 22 Sudoeste 0 -- -- 51
2020-03-18 16:00:00 22.7 12 Sur 23 Sudoeste 0 -- -- 48
2020-03-18 15:00:00 22.8 10 Sudoeste 21 Sudoeste 0 -- -- 52
2020-03-18 14:00:00 22.2 8 Sudoeste 21 Sudoeste 0 -- -- 51
2020-03-18 13:00:00 21.2 6 Norte 14 Oeste 0 -- -- 48
2020-03-18 12:00:00 20.3 5 Noroeste 11 Noroeste 0 -- -- 54
2020-03-18 11:00:00 18.6 7 Oeste 14 Oeste 0 -- -- 61
2020-03-18 10:00:00 16.5 6 Noroeste 11 Noroeste 0 -- -- 66
2020-03-18 09:00:00 13.7 4 Este 8 Nordeste 0 -- -- 78
2020-03-18 08:00:00 10.7 8 Nordeste 13 Nordeste 0 -- -- 83
2020-03-18 07:00:00 10 2 Sur 16 Este 0 -- -- 85
2020-03-18 06:00:00 11 14 Este 18 Este 0 -- -- 82
2020-03-18 05:00:00 8.8 2 Este 12 Este 0 -- -- 90
2020-03-18 04:00:00 8.8 4 Este 10 Nordeste 0 -- -- 89
2020-03-18 03:00:00 9.1 8 Nordeste 11 Nordeste 0 -- -- 88
2020-03-18 02:00:00 9 4 Nordeste 9 Sudoeste 0 -- -- 88
2020-03-18 01:00:00 10.2 4 Sur 21 Sur 0 -- -- 82
2020-03-18 00:00:00 11.4 3 Este 24 Nordeste 0 -- -- 80
2020-03-17 23:00:00 12.2 18 Nordeste 24 Nordeste 0 -- -- 79
2020-03-17 22:00:00 9.5 10 Nordeste 13 Nordeste 0 -- -- 88
2020-03-17 21:00:00 10.4 3 Este 5 Este 0 -- -- 81
2020-03-17 20:00:00 12.2 0 Calma 3 Nordeste 0 -- -- 77
2020-03-17 19:00:00 13.9 0 Calma 9 Sur 0.4 -- -- 81
2020-03-17 18:00:00 15.6 3 Sudoeste 7 Sudoeste 0.2 -- -- 53
2020-03-17 17:00:00 16.1 6 Noroeste 11 Oeste 0 -- -- 49
2020-03-17 16:00:00 16.6 4 Sudoeste 10 Sudoeste 0 -- -- 52
2020-03-17 15:00:00 16.3 8 Oeste 17 Oeste 0 -- -- 54
2020-03-17 14:00:00 16 8 Sudoeste 21 Oeste 0 -- -- 56
2020-03-17 13:00:00 15 6 Oeste 21 Norte 0 -- -- 61
2020-03-17 12:00:00 14.8 8 Este 15 Este 0 -- -- 59
2020-03-17 11:00:00 12.6 8 Sudeste 13 Sudeste 0 -- -- 71
2020-03-17 10:00:00 9.6 6 Nordeste 14 Nordeste 0 -- -- 84
2020-03-17 09:00:00 8.5 5 Norte 13 Nordeste 0 -- -- 91
2020-03-17 08:00:00 6.3 4 Norte 8 Norte 0 -- -- 96
2020-03-17 07:00:00 6.3 4 Norte 12 Oeste 0 -- -- 95
2020-03-17 06:00:00 6.7 5 Oeste 9 Oeste 0.8 -- -- 93
2020-03-17 05:00:00 6.8 5 Este 12 Este 1.2 -- -- 91
2020-03-17 04:00:00 6.8 8 Este 15 Este 0 -- -- 88
2020-03-17 03:00:00 6.7 7 Este 12 Este 0 -- -- 91
2020-03-17 02:00:00 7.1 7 Este 12 Sudeste 0 -- -- 90
2020-03-17 01:00:00 7.3 5 Sur 10 Sur 0 -- -- 86
2020-03-17 00:00:00 7.3 8 Sur 14 Sur 0 -- -- 86
2020-03-16 23:00:00 7.4 9 Sur 15 Sur 0 -- -- 86
2020-03-16 22:00:00 7.6 7 Sur 11 Sur 0 -- -- 86
2020-03-16 21:00:00 8.1 2 Sudeste 11 Oeste 0.2 -- -- 85
2020-03-16 20:00:00 8.8 4 Sudoeste 10 Noroeste 0 -- -- 74
2020-03-16 19:00:00 9.4 3 Noroeste 27 Noroeste 0 -- -- 66
2020-03-16 18:00:00 10.5 12 Noroeste 17 Oeste 0 -- -- 57
2020-03-16 17:00:00 10.9 12 Oeste 21 Oeste 0 -- -- 53
2020-03-16 16:00:00 11 15 Oeste 30 Sudoeste 0 -- -- 55
2020-03-16 15:00:00 11.7 18 Oeste 30 Oeste 0 -- -- 53
2020-03-16 14:00:00 12 18 Oeste 33 Oeste 0 -- -- 52
2020-03-16 13:00:00 12.3 14 Oeste 28 Oeste 0 -- -- 50
2020-03-16 12:00:00 11.1 13 Oeste 28 Oeste 0 -- -- 54
2020-03-16 11:00:00 10.4 19 Oeste 28 Oeste 0 -- -- 55
2020-03-16 10:00:00 9.1 17 Noroeste 26 Noroeste 0 -- -- 60
2020-03-16 09:00:00 7.6 17 Noroeste 25 Noroeste 0 -- -- 66
2020-03-16 08:00:00 6.9 9 Oeste 19 Oeste 0 -- -- 71
2020-03-16 07:00:00 7.6 11 Oeste 21 Oeste 0 -- -- 76
2020-03-16 06:00:00 7.9 14 Oeste 26 Oeste 0.4 -- -- 75
2020-03-16 05:00:00 9.1 20 Oeste 32 Oeste 0 -- -- 71
2020-03-16 04:00:00 10.1 17 Oeste 34 Oeste 0 -- -- 73
2020-03-16 03:00:00 13.8 18 Sudoeste 31 Sudoeste 0 -- -- 87
2020-03-16 02:00:00 13.8 17 Sudoeste 33 Sudoeste 0 -- -- 86
2020-03-16 01:00:00 13.8 18 Sudoeste 32 Sudoeste 0 -- -- 84
2020-03-16 00:00:00 14.3 19 Sudoeste 33 Sudoeste 0 -- -- 81
2020-03-15 23:00:00 15.4 15 Sudoeste 32 Sudoeste 0 -- -- 78
2020-03-15 22:00:00 15.4 13 Sudeste 18 Sudeste 0 -- -- 69
2020-03-15 21:00:00 15.5 13 Sudeste 19 Sudeste 0 -- -- 69
2020-03-15 20:00:00 16.8 8 Sur 19 Sur 0 -- -- 63
2020-03-15 19:00:00 19.9 11 Sur 20 Sur 0 -- -- 50
2020-03-15 18:00:00 21.7 14 Sudoeste 25 Sur 0 -- -- 49
2020-03-15 17:00:00 21.1 14 Sudoeste 23 Sur 0 -- -- 52
2020-03-15 16:00:00 20.9 13 Sur 26 Sur 0 -- -- 52
2020-03-15 15:00:00 20 17 Sur 33 Sur 0 -- -- 57
2020-03-15 14:00:00 19.6 13 Sur 27 Sur 0 -- -- 62
2020-03-15 13:00:00 20.3 13 Sur 23 Sudeste 0 -- -- 61
2020-03-15 12:00:00 18.5 9 Sudeste 19 Sur 0 -- -- 67
2020-03-15 11:00:00 15.4 10 Sur 17 Sur 0 -- -- 79
2020-03-15 10:00:00 13.5 6 Sudeste 12 Sudeste 0 -- -- 84
2020-03-15 09:00:00 11.9 3 Este 13 Sudeste 0 -- -- 90
2020-03-15 08:00:00 10.4 11 Sudeste 17 Sudeste 0 -- -- 93
2020-03-15 07:00:00 10 5 Este 10 Este 0 -- -- 92
2020-03-15 06:00:00 10.5 4 Nordeste 9 Este 0 -- -- 91
2020-03-15 05:00:00 11.1 4 Este 21 Sudeste 0 -- -- 88
2020-03-15 04:00:00 11.4 13 Sudeste 21 Sudeste 0 -- -- 87
2020-03-15 03:00:00 11.2 11 Sudeste 15 Sudeste 0 -- -- 88
2020-03-15 02:00:00 12.2 13 Sudeste 22 Sudeste 0 -- -- 84
2020-03-15 01:00:00 12.5 13 Sudeste 20 Sudeste 0 -- -- 82
2020-03-15 00:00:00 13.2 14 Sudeste 19 Sudeste 0 -- -- 81
2020-03-14 23:00:00 13 5 Sur 12 Sur 0 -- -- 85
2020-03-14 22:00:00 13.4 4 Sur 6 Sur 0 -- -- 82
2020-03-14 21:00:00 15.2 0 Calma 4 Oeste 0 -- -- 76
2020-03-14 20:00:00 17.8 0 Calma 11 Oeste 0 -- -- 67
2020-03-14 19:00:00 20.8 8 Oeste 12 Oeste 0 -- -- 60
2020-03-14 18:00:00 22.6 7 Oeste 14 Oeste 0 -- -- 56
2020-03-14 17:00:00 22.8 9 Oeste 18 Oeste 0 -- -- 53
2020-03-14 16:00:00 22.6 10 Sudoeste 17 Oeste 0 -- -- 59
2020-03-14 15:00:00 21.5 8 Noroeste 17 Noroeste 0 -- -- 60
2020-03-14 14:00:00 20.6 9 Oeste 19 Oeste 0 -- -- 64
2020-03-14 13:00:00 19 8 Oeste 15 Oeste 0 -- -- 68
2020-03-14 12:00:00 17.9 6 Oeste 13 Noroeste 0 -- -- 73
2020-03-14 11:00:00 16 8 Noroeste 13 Noroeste 0 -- -- 75
2020-03-14 10:00:00 14.5 3 Sudoeste 6 Sudoeste 0 -- -- 84
2020-03-14 09:00:00 12.5 0 Calma 9 Sudeste 0 -- -- 96
2020-03-14 08:00:00 9 3 Sudeste 9 Sudeste 0 -- -- 97
2020-03-14 07:00:00 9.1 0 Calma 11 Sudeste 0 -- -- 96
2020-03-14 06:00:00 8.3 6 Sudeste 8 Sudeste 0 -- -- 95
2020-03-14 05:00:00 8.5 2 Este 5 Sudeste 0 -- -- 94
2020-03-14 04:00:00 9 0 Calma 8 Sudeste 0 -- -- 93
2020-03-14 03:00:00 9.4 0 Calma 8 Sudeste 0 -- -- 93
2020-03-14 02:00:00 10.1 2 Este 6 Este 0 -- -- 91
2020-03-14 01:00:00 11.1 3 Sudeste 7 Sur 0 -- -- 89
2020-03-14 00:00:00 13 3 Sur 6 Sudoeste 0 -- -- 87
2020-03-13 23:00:00 13.7 2 Oeste 10 Sudoeste 0 -- -- 85
2020-03-13 22:00:00 14.5 6 Sudoeste 10 Sudoeste 0 -- -- 81
2020-03-13 21:00:00 15.4 3 Sudoeste 8 Sudoeste 0 -- -- 75
2020-03-13 20:00:00 17 7 Sudoeste 14 Oeste 0 -- -- 66
2020-03-13 19:00:00 19.9 10 Oeste 20 Sudoeste 0 -- -- 59
2020-03-13 18:00:00 20.7 12 Oeste 21 Oeste 0 -- -- 56
2020-03-13 17:00:00 21 14 Oeste 20 Oeste 0 -- -- 56
2020-03-13 16:00:00 20.3 9 Oeste 19 Oeste 0 -- -- 59
2020-03-13 15:00:00 19.4 11 Oeste 17 Oeste 0 -- -- 64
2020-03-13 14:00:00 17.9 9 Oeste 20 Oeste 0 -- -- 69
2020-03-13 13:00:00 15.8 7 Oeste 17 Noroeste 0 -- -- 79
2020-03-13 12:00:00 14 9 Oeste 14 Oeste 0 -- -- 88
2020-03-13 11:00:00 11.8 7 Oeste 14 Oeste 0 -- -- 96
2020-03-13 10:00:00 11.3 3 Oeste 9 Oeste 0 -- -- 97
2020-03-13 09:00:00 9.7 4 Sudoeste 10 Sudoeste 0 -- -- 95
2020-03-13 08:00:00 7.6 2 Sudeste 7 Este 0 -- -- 91
2020-03-13 07:00:00 8.1 5 Este 7 Este 0 -- -- 88
2020-03-13 06:00:00 9.6 4 Este 5 Este 0 -- -- 85
2020-03-13 05:00:00 10.6 0 Calma 13 Sudeste 0 -- -- 83
2020-03-13 04:00:00 11.5 0 Calma 13 Este 0 -- -- 86
2020-03-13 03:00:00 11 7 Sudeste 10 Sudeste 0 -- -- 87
2020-03-13 02:00:00 12.6 4 Este 12 Sudeste 0 -- -- 83
2020-03-13 01:00:00 13.6 9 Sudeste 12 Sudeste 0 -- -- 82
2020-03-13 00:00:00 13.5 8 Sudeste 10 Sudeste 0 -- -- 83
2020-03-12 23:00:00 15.4 4 Sudoeste 10 Sudoeste 0 -- -- 75
2020-03-12 22:00:00 16.5 6 Sudoeste 15 Oeste 0 -- -- 71
2020-03-12 21:00:00 17.7 5 Oeste 16 Oeste 0 -- -- 68
2020-03-12 20:00:00 18.8 9 Oeste 17 Oeste 0 -- -- 66
2020-03-12 19:00:00 22 8 Oeste 23 Oeste 0 -- -- 53
2020-03-12 18:00:00 23.9 17 Oeste 26 Oeste 0 -- -- 47
2020-03-12 17:00:00 25.5 18 Oeste 27 Sudoeste 0 -- -- 42
2020-03-12 16:00:00 25.9 15 Oeste 24 Oeste 0 -- -- 42
2020-03-12 15:00:00 25.8 12 Oeste 19 Oeste 0 -- -- 42
2020-03-12 14:00:00 25.9 7 Noroeste 15 Oeste 0 -- -- 42
2020-03-12 13:00:00 25.5 8 Oeste 18 Oeste 0 -- -- 39
2020-03-12 12:00:00 24.9 6 Sur 14 Sur 0 -- -- 37
2020-03-12 11:00:00 22.1 9 Sudoeste 15 Sur 0 -- -- 43
2020-03-12 10:00:00 20.1 8 Sudeste 15 Sudeste 0 -- -- 48
2020-03-12 09:00:00 15.9 9 Sudeste 17 Sudeste 0 -- -- 56
2020-03-12 08:00:00 13.1 10 Sudeste 30 Sudeste 0 -- -- 59
2020-03-12 07:00:00 13.7 22 Sudeste 28 Sudeste 0 -- -- 56
2020-03-12 06:00:00 13 14 Sudeste 21 Sur 0 -- -- 60
2020-03-12 05:00:00 14.5 12 Sur 19 Sur 0 -- -- 55
2020-03-12 04:00:00 13.1 5 Sudeste 14 Sudeste 0 -- -- 58
2020-03-12 03:00:00 13.6 2 Nordeste 12 Sudoeste 0 -- -- 63
2020-03-12 02:00:00 16.6 10 Sudeste 15 Este 0 -- -- 53
2020-03-12 01:00:00 18 13 Este 20 Este 0 -- -- 50
2020-03-12 00:00:00 18 12 Este 19 Este 0 -- -- 52
2020-03-11 23:00:00 18.4 12 Sudeste 18 Este 0 -- -- 52
2020-03-11 22:00:00 20 13 Este 21 Este 0 -- -- 52
2020-03-11 21:00:00 19.2 12 Este 14 Sudeste 0 -- -- 57
2020-03-11 20:00:00 21.2 3 Este 8 Este 0 -- -- 49
2020-03-11 19:00:00 24.6 5 Nordeste 14 Norte 0 -- -- 44
2020-03-11 18:00:00 25.9 8 Norte 13 Nordeste 0 -- -- 42
2020-03-11 17:00:00 27.6 7 Sudoeste 14 Oeste 0 -- -- 33
2020-03-11 16:00:00 27.9 10 Oeste 17 Oeste 0 -- -- 35
2020-03-11 15:00:00 29.5 5 Sudeste 20 Sudoeste 0 -- -- 28
2020-03-11 14:00:00 28.8 5 Sudoeste 16 Sur 0 -- -- 33
2020-03-11 13:00:00 27 6 Sur 12 Sur 0 -- -- 38
2020-03-11 12:00:00 23.4 4 Noroeste 8 Noroeste 0 -- -- 47
2020-03-11 11:00:00 20.6 5 Noroeste 8 Noroeste 0 -- -- 49
2020-03-11 10:00:00 17.9 3 Oeste 5 Oeste 0 -- -- 55
2020-03-11 09:00:00 14.8 0 Calma 9 Este 0 -- -- 68
2020-03-11 08:00:00 10.4 0 Calma 18 Este 0 -- -- 74
2020-03-11 07:00:00 10.7 17 Sudeste 22 Sudeste 0 -- -- 72
2020-03-11 06:00:00 10.6 8 Este 13 Este 0 -- -- 71
2020-03-11 05:00:00 10.6 4 Sudeste 12 Este 0 -- -- 68
2020-03-11 04:00:00 12.4 4 Este 15 Este 0 -- -- 63
2020-03-11 03:00:00 12.6 15 Sudeste 21 Sudeste 0 -- -- 63
2020-03-11 02:00:00 12.3 3 Este 15 Sudeste 0 -- -- 59
2020-03-11 01:00:00 14.1 5 Sur 26 Sudeste 0 -- -- 56
2020-03-11 00:00:00 15 12 Sudeste 21 Sudeste 0 -- -- 54
2020-03-10 23:00:00 14 3 Nordeste 16 Sudeste 0 -- -- 57
2020-03-10 22:00:00 15.3 9 Sudeste 14 Sudeste 0 -- -- 54
2020-03-10 21:00:00 16.2 10 Sudeste 18 Sur 0 -- -- 51
2020-03-10 20:00:00 18.7 8 Sudeste 19 Sudeste 0 -- -- 46
2020-03-10 19:00:00 23.6 5 Nordeste 10 Nordeste 0 -- -- 37
2020-03-10 18:00:00 25.6 4 Noroeste 14 Noroeste 0 -- -- 37
2020-03-10 17:00:00 25.6 6 Noroeste 14 Norte 0 -- -- 33
2020-03-10 16:00:00 25 5 Norte 13 Norte 0 -- -- 35
2020-03-10 15:00:00 24 5 Nordeste 17 Norte 0 -- -- 40
2020-03-10 14:00:00 22.9 6 Nordeste 17 Noroeste 0 -- -- 38
2020-03-10 13:00:00 21.6 6 Norte 13 Norte 0 -- -- 43
2020-03-10 12:00:00 19.7 6 Norte 13 Norte 0 -- -- 44
2020-03-10 11:00:00 17.8 4 Noroeste 9 Oeste 0 -- -- 45
2020-03-10 10:00:00 15.4 6 Oeste 10 Sudoeste 0 -- -- 53
2020-03-10 09:00:00 12.3 6 Sur 9 Sur 0 -- -- 62
2020-03-10 08:00:00 8.1 0 Calma 9 Sudeste 0 -- -- 70
2020-03-10 07:00:00 8.6 2 Sur 9 Sudeste 0 -- -- 73
2020-03-10 06:00:00 10.8 5 Nordeste 18 Nordeste 0 -- -- 63
2020-03-10 05:00:00 10.4 10 Nordeste 15 Nordeste 0 -- -- 69
2020-03-10 04:00:00 9.3 0 Calma 4 Norte 0 -- -- 74
2020-03-10 03:00:00 10 2 Oeste 12 Nordeste 0 -- -- 67
2020-03-10 02:00:00 10.3 3 Nordeste 8 Nordeste 0 -- -- 78
2020-03-10 01:00:00 10.8 5 Nordeste 12 Nordeste 0 -- -- 65
2020-03-10 00:00:00 10 9 Nordeste 12 Nordeste 0 -- -- 71
2020-03-09 23:00:00 10.4 6 Nordeste 8 Nordeste 0 -- -- 70
2020-03-09 22:00:00 11.7 0 Calma 8 Sudoeste 0 -- -- 66
2020-03-09 21:00:00 12.4 0 Calma 4 Sudoeste 0 -- -- 65
2020-03-09 20:00:00 15.6 0 Calma 4 Sur 0 -- -- 55
2020-03-09 19:00:00 19.8 4 Noroeste 18 Oeste 0 -- -- 44
2020-03-09 18:00:00 20.4 12 Noroeste 20 Noroeste 0 -- -- 43
2020-03-09 17:00:00 20.6 11 Noroeste 25 Oeste 0 -- -- 43
2020-03-09 16:00:00 20.5 11 Noroeste 22 Noroeste 0 -- -- 39
2020-03-09 15:00:00 20 8 Norte 20 Norte 0 -- -- 40
2020-03-09 14:00:00 19.2 10 Noroeste 23 Norte 0 -- -- 48
2020-03-09 13:00:00 18.3 8 Noroeste 20 Noroeste 0 -- -- 47
2020-03-09 12:00:00 16.9 8 Norte 19 Norte 0 -- -- 52
2020-03-09 11:00:00 15.1 5 Noroeste 10 Noroeste 0 -- -- 60
2020-03-09 10:00:00 12.9 5 Oeste 8 Sudoeste 0 -- -- 69
2020-03-09 09:00:00 9.8 0 Calma 8 Este 0 -- -- 82
2020-03-09 08:00:00 3.8 0 Calma 9 Este 0 -- -- 91
2020-03-09 07:00:00 4.2 3 Sudeste 5 Sudeste 0 -- -- 88
2020-03-09 06:00:00 4.8 4 Este 8 Este 0 -- -- 83
2020-03-09 05:00:00 5.2 3 Sudeste 7 Sudeste 0 -- -- 84
2020-03-09 04:00:00 5.3 4 Sudeste 10 Este 0 -- -- 82
2020-03-09 03:00:00 6 3 Este 8 Este 0 -- -- 79
2020-03-09 02:00:00 7 0 Calma 9 Este 0 -- -- 75
2020-03-09 01:00:00 8.3 5 Este 9 Este 0 -- -- 71
2020-03-09 00:00:00 9.8 3 Este 6 Este 0 -- -- 67